Oxford, CT

7:48 AM EST on January 29, 2015 (GMT -0500)
Tweed-New Haven | Change Station
CLOSE
Current Station
Airport
Location: New Haven,
Elevation: 13 ft
Nearby Weather Stations

Elev 13 ft 41.26 °N, 72.89 °W | Updated 55 minutes ago

Partly Cloudy
Partly Cloudy
13 °F
Feels Like 4 °F
N
6
Wind Variable Wind from North

Today
High -- | Low -- °F
--% Chance of Precip.
Yesterday
High -- | Low -- °F
Precip. -- in
7:07 AM 5:04 PM
Waxing Gibbous, 74% visible
Pressure 30.32 in
Visibility 10.0 miles
Clouds Clear
Windchill 4 °F
Dew Point 0 °F
Humidity 56%
Rainfall 0.00 in
Snow Depth Not available.
UV 0 out of 12
Pollen .10 out of 12
Air Quality Not available.
Flu Activity Not available.
METAR KHVN 291153Z 36005KT 10SM CLR M11/M18 A3032 RMK AO2 SLP265 T11061178 11078 21117 51012

More Conditions Fewer Conditions

Pressure 30.32 in
Visibility 10.0 miles
Clouds Clear
Windchill 4 °F
Dew Point 0 °F
Humidity 56%
Rainfall 0.00 in
Snow Depth Not available.
UV 0 out of 12
Pollen .10 out of 12
Air Quality Not available.
Flu Activity Not available.
METAR KHVN 291153Z 36005KT 10SM CLR M11/M18 A3032 RMK AO2 SLP265 T11061178 11078 21117 51012

More Conditions Fewer Conditions

10-Day Weather Forecast

Almanac

Astronomy

Jan. 29, 2015 Rise Set
Actual Time
Civil Twilight
Nautical Twilight
Astronomical Twilight
Moon
Length of Visible Light
Length of Day
Tomorrow will be .
, % of the Moon is Illuminated

Today's Extremes

State Highs State Lows

Community

WunderPhotos

Upload Photos

1,791,420 photos uploaded!

WunderBlogs® & News

Nearby

Air Quality

  Air Quality AQ Index Pollutant
Not available.

Snow Depth

Station Depth Elevation

Earthquake Activity

City Distance Mag. Time & Date
Minimum magnitude displayed is 2.5.

Coastal Water Temperatures

Place Temperature

Nearby Weather Stations